createdAt,value
2018-04-30T00:02:01.278Z,9.43
2018-04-30T00:04:35.938Z,12.30
2018-04-30T00:07:09.904Z,10.60
2018-04-30T00:09:44.054Z,9.57
2018-04-30T00:12:18.594Z,11.97
2018-04-30T00:14:53.811Z,8.27
2018-04-30T00:17:28.157Z,7.33
2018-04-30T00:20:02.299Z,10.53
2018-04-30T00:22:36.757Z,10.60
2018-04-30T00:25:10.903Z,8.10
2018-04-30T00:27:45.623Z,5.17
2018-04-30T00:30:19.630Z,6.80
2018-04-30T00:32:53.722Z,12.73
2018-04-30T00:35:28.169Z,7.80
2018-04-30T00:38:02.213Z,7.87
2018-04-30T00:40:36.050Z,5.83
2018-04-30T00:43:10.668Z,7.47
2018-04-30T00:45:45.304Z,5.77
2018-04-30T00:48:20.179Z,4.20
2018-04-30T00:50:54.216Z,7.77
2018-04-30T00:53:28.195Z,9.33
2018-04-30T00:56:03.286Z,8.50
2018-04-30T00:58:37.021Z,6.07
2018-04-30T01:01:12.338Z,6.73
2018-04-30T01:03:46.154Z,7.17
2018-04-30T01:06:20.774Z,6.40
2018-04-30T01:08:55.382Z,6.80
2018-04-30T01:11:29.182Z,4.37
2018-04-30T01:14:03.935Z,6.10
2018-04-30T01:16:38.448Z,3.03
2018-04-30T01:19:13.160Z,4.00
2018-04-30T01:21:46.862Z,4.07
2018-04-30T01:24:21.162Z,2.10
2018-04-30T01:26:54.882Z,2.83
2018-04-30T01:29:29.406Z,1.83
2018-04-30T01:32:04.722Z,2.23
2018-04-30T01:34:38.443Z,2.93
2018-04-30T01:37:12.662Z,2.53
2018-04-30T01:39:46.181Z,1.23
2018-04-30T01:42:20.336Z,2.43
2018-04-30T01:57:44.015Z,1.67
2018-04-30T02:00:17.793Z,1.00
2018-04-30T02:02:52.987Z,2.20
2018-04-30T02:05:26.661Z,1.93
2018-04-30T02:08:01.169Z,1.30
2018-04-30T02:10:36.003Z,2.17
2018-04-30T02:13:10.790Z,1.63
2018-04-30T02:15:45.257Z,2.77
2018-04-30T02:18:19.710Z,2.47
2018-04-30T02:20:54.045Z,1.20
2018-04-30T02:23:28.576Z,1.10
2018-04-30T02:26:02.682Z,0.93
2018-04-30T02:28:37.001Z,0.83
2018-04-30T02:31:11.327Z,2.43
2018-04-30T02:33:45.902Z,2.23
2018-04-30T02:36:20.187Z,1.93
2018-04-30T02:38:55.339Z,0.97
2018-04-30T02:41:30.336Z,1.60
2018-04-30T02:44:04.496Z,1.17
2018-04-30T02:46:38.540Z,1.17
2018-04-30T02:49:12.599Z,1.23
2018-04-30T02:51:47.222Z,1.20
2018-04-30T02:54:21.235Z,1.47
2018-04-30T02:56:55.831Z,1.13
2018-04-30T02:59:30.046Z,2.60
2018-04-30T03:02:04.079Z,1.00
2018-04-30T03:04:37.967Z,1.20
2018-04-30T03:07:12.335Z,1.73
2018-04-30T03:09:46.867Z,1.10
2018-04-30T03:12:20.723Z,1.87
2018-04-30T03:14:54.738Z,2.83
2018-04-30T03:17:28.442Z,0.97
2018-04-30T03:20:02.662Z,3.00
2018-04-30T03:22:36.708Z,1.70
2018-04-30T03:25:11.902Z,1.10
2018-04-30T03:27:46.526Z,2.20
2018-04-30T03:30:20.231Z,0.93
2018-04-30T03:32:55.185Z,4.50
2018-04-30T03:35:29.182Z,2.23
2018-04-30T03:38:04.101Z,3.17
2018-04-30T03:40:38.108Z,9.57
2018-04-30T03:43:12.700Z,1.57
2018-04-30T03:45:46.518Z,3.40
2018-04-30T03:48:21.673Z,2.70
2018-04-30T03:50:55.199Z,1.10
2018-04-30T03:53:30.159Z,1.40
2018-04-30T03:56:04.107Z,1.30
2018-04-30T03:58:38.842Z,1.40
2018-04-30T04:01:25.491Z,2.03
2018-04-30T04:04:11.145Z,1.50
2018-04-30T04:06:51.762Z,1.27
2018-04-30T04:09:26.339Z,1.13
2018-04-30T04:12:01.141Z,1.33
2018-04-30T04:14:35.128Z,2.10
2018-04-30T04:17:09.809Z,1.73
2018-04-30T04:19:43.489Z,1.57
2018-04-30T04:22:17.726Z,1.53
2018-04-30T04:24:52.414Z,1.67
2018-04-30T04:27:26.347Z,2.13
2018-04-30T04:30:00.642Z,2.37
2018-04-30T04:32:35.220Z,1.83
2018-04-30T04:35:10.189Z,1.27
2018-04-30T04:37:43.911Z,1.70
2018-04-30T04:40:18.782Z,1.53
2018-04-30T04:42:53.257Z,3.33
2018-04-30T04:45:28.373Z,1.87
2018-04-30T04:48:02.051Z,1.30
2018-04-30T04:50:37.285Z,1.50
2018-04-30T04:53:11.063Z,1.47
2018-04-30T04:55:44.912Z,1.30
2018-04-30T04:58:19.381Z,3.90
2018-04-30T05:00:53.234Z,1.43
2018-04-30T05:03:28.904Z,1.60
2018-04-30T05:06:02.702Z,1.37
2018-04-30T05:08:37.720Z,3.33
2018-04-30T05:11:12.397Z,1.33
2018-04-30T05:13:46.393Z,1.40
2018-04-30T05:16:20.783Z,1.43
2018-04-30T05:18:55.520Z,1.97
2018-04-30T05:21:30.349Z,1.97
2018-04-30T05:24:05.597Z,3.63
2018-04-30T05:26:40.520Z,1.43
2018-04-30T05:29:15.154Z,2.10
2018-04-30T05:31:49.166Z,1.57
2018-04-30T05:34:23.066Z,1.23
2018-04-30T05:36:57.762Z,1.40
2018-04-30T05:39:32.409Z,2.20
2018-04-30T05:42:06.391Z,1.00
2018-04-30T05:44:41.668Z,1.07
2018-04-30T05:47:16.460Z,1.73
2018-04-30T05:49:50.905Z,2.10
2018-04-30T05:52:25.346Z,1.27
2018-04-30T05:55:00.002Z,1.23
2018-04-30T05:57:34.724Z,2.67
2018-04-30T06:00:09.880Z,1.13
2018-04-30T06:02:44.593Z,1.00
2018-04-30T06:05:19.157Z,1.30
2018-04-30T06:07:53.984Z,1.00
2018-04-30T06:10:28.832Z,1.20
2018-04-30T06:13:02.534Z,0.90
2018-04-30T06:15:36.614Z,1.00
2018-04-30T06:18:11.434Z,0.97
2018-04-30T06:20:45.444Z,1.90
2018-04-30T06:23:19.553Z,1.00
2018-04-30T06:25:53.289Z,1.00
2018-04-30T06:28:28.337Z,1.10
2018-04-30T06:31:02.123Z,1.13
2018-04-30T06:33:36.631Z,1.97
2018-04-30T06:36:11.361Z,0.90
2018-04-30T06:38:46.732Z,1.10
2018-04-30T06:41:20.818Z,0.97
2018-04-30T06:43:55.654Z,0.90
2018-04-30T06:46:30.174Z,0.90
2018-04-30T06:49:03.860Z,1.10
2018-04-30T06:51:39.074Z,0.90
2018-04-30T06:54:12.983Z,0.80
2018-04-30T06:56:48.060Z,0.90
2018-04-30T06:59:22.574Z,0.93
2018-04-30T07:01:57.357Z,0.90
2018-04-30T07:04:31.526Z,1.00
2018-04-30T07:07:06.467Z,1.00
2018-04-30T07:09:40.642Z,1.10
2018-04-30T07:12:14.081Z,1.63
2018-04-30T07:14:47.827Z,1.10
2018-04-30T07:17:21.969Z,1.47
2018-04-30T07:19:55.891Z,1.00
2018-04-30T07:22:30.605Z,2.13
2018-04-30T07:25:05.139Z,1.20
2018-04-30T07:27:39.118Z,1.03
2018-04-30T07:30:12.935Z,1.00
2018-04-30T07:32:46.653Z,1.20
2018-04-30T07:35:21.823Z,1.30
2018-04-30T07:37:55.683Z,1.63
2018-04-30T07:40:30.002Z,0.90
2018-04-30T07:43:04.627Z,1.10
2018-04-30T07:45:39.040Z,1.00
2018-04-30T07:48:13.482Z,1.70
2018-04-30T07:50:49.209Z,1.50
2018-04-30T07:53:23.638Z,1.10
2018-04-30T07:55:59.482Z,1.90
2018-04-30T07:58:34.023Z,1.20
2018-04-30T08:01:07.711Z,1.00
2018-04-30T08:03:42.333Z,0.90
2018-04-30T08:06:16.145Z,2.03
2018-04-30T08:08:50.248Z,1.20
2018-04-30T08:11:24.845Z,1.00
2018-04-30T08:13:59.825Z,1.00
2018-04-30T08:16:34.635Z,2.00
2018-04-30T08:19:10.087Z,1.20
2018-04-30T08:21:44.745Z,1.00
2018-04-30T08:24:19.329Z,1.70
2018-04-30T08:26:53.054Z,1.10
2018-04-30T08:29:27.038Z,1.10
2018-04-30T08:32:01.981Z,1.00
2018-04-30T08:34:37.081Z,1.10
2018-04-30T08:37:10.696Z,0.90
2018-04-30T08:39:44.491Z,0.80
2018-04-30T08:42:18.352Z,0.97
2018-04-30T08:44:53.139Z,1.73
2018-04-30T08:47:28.270Z,1.93
2018-04-30T08:50:03.010Z,2.00
2018-04-30T08:52:38.519Z,0.87
2018-04-30T08:55:12.335Z,0.80
2018-04-30T08:57:47.567Z,4.50
2018-04-30T09:00:22.320Z,0.90
2018-04-30T09:02:56.419Z,0.70
2018-04-30T09:05:32.498Z,8.10
2018-04-30T09:08:07.819Z,0.80
2018-04-30T09:10:42.756Z,1.27
2018-04-30T09:13:17.782Z,1.00
2018-04-30T09:15:52.402Z,1.63
2018-04-30T09:18:28.584Z,3.23
2018-04-30T09:21:03.216Z,0.90
2018-04-30T09:23:38.532Z,1.57
2018-04-30T09:26:12.929Z,0.90
2018-04-30T09:28:46.932Z,0.87
2018-04-30T09:31:20.884Z,0.80
2018-04-30T09:33:55.496Z,0.90
2018-04-30T09:36:29.393Z,4.03
2018-04-30T09:39:04.125Z,1.10
2018-04-30T09:41:39.953Z,1.63
2018-04-30T09:44:13.594Z,1.13
2018-04-30T09:46:47.789Z,1.23
2018-04-30T09:49:22.035Z,0.90
2018-04-30T09:51:56.168Z,0.80
2018-04-30T09:54:30.740Z,0.87
2018-04-30T09:57:04.616Z,1.23
2018-04-30T09:59:38.962Z,0.80
2018-04-30T10:02:13.641Z,1.07
2018-04-30T10:04:48.671Z,1.03
2018-04-30T10:07:22.501Z,1.00
2018-04-30T10:09:56.347Z,1.33
2018-04-30T10:12:30.664Z,1.10
2018-04-30T10:15:05.277Z,1.17
2018-04-30T10:17:40.118Z,0.90
2018-04-30T10:20:14.715Z,1.10
2018-04-30T10:22:49.679Z,1.93
2018-04-30T10:25:24.169Z,2.30
2018-04-30T10:27:59.104Z,0.90
2018-04-30T10:30:33.547Z,2.33
2018-04-30T10:33:10.713Z,0.90
2018-04-30T10:35:44.715Z,1.40
2018-04-30T10:38:19.240Z,1.43
2018-04-30T10:40:52.733Z,1.30
2018-04-30T10:43:26.910Z,0.73
2018-04-30T10:46:00.596Z,1.00
2018-04-30T10:48:34.564Z,0.90
2018-04-30T10:51:08.844Z,1.03
2018-04-30T10:53:42.682Z,0.90
2018-04-30T10:56:17.506Z,1.77
2018-04-30T10:58:51.934Z,0.90
2018-04-30T11:01:26.153Z,1.70
2018-04-30T11:04:00.842Z,1.07
2018-04-30T11:06:35.399Z,1.20
2018-04-30T11:09:09.829Z,0.90
2018-04-30T11:11:43.871Z,1.00
2018-04-30T11:14:17.863Z,1.23
2018-04-30T11:16:52.549Z,1.00
2018-04-30T11:19:26.739Z,1.07
2018-04-30T11:22:01.647Z,1.17
2018-04-30T11:24:35.909Z,1.70
2018-04-30T11:27:11.062Z,0.90
2018-04-30T11:29:45.500Z,2.33
2018-04-30T11:32:19.795Z,3.13
2018-04-30T11:34:54.230Z,1.30
2018-04-30T11:37:29.134Z,1.87
2018-04-30T11:40:03.833Z,3.93
2018-04-30T11:42:37.756Z,2.93
2018-04-30T11:45:11.932Z,3.10
2018-04-30T11:47:46.550Z,2.43
2018-04-30T11:50:21.732Z,1.33
2018-04-30T11:52:57.967Z,1.83
2018-04-30T11:55:32.839Z,1.03
2018-04-30T11:58:07.927Z,3.97
2018-04-30T12:00:42.664Z,2.30
2018-04-30T12:03:18.122Z,1.13
2018-04-30T12:05:52.661Z,1.17
2018-04-30T12:08:27.878Z,1.17
2018-04-30T12:11:02.355Z,2.10
2018-04-30T12:13:37.297Z,1.20
2018-04-30T12:16:11.144Z,1.07
2018-04-30T12:18:45.963Z,1.53
2018-04-30T12:21:19.865Z,1.33
2018-04-30T12:23:54.166Z,1.50
2018-04-30T12:26:29.147Z,1.10
2018-04-30T12:29:03.687Z,1.00
2018-04-30T12:31:39.102Z,1.00
2018-04-30T12:34:12.683Z,2.43
2018-04-30T12:36:47.429Z,1.27
2018-04-30T12:39:22.225Z,3.60
2018-04-30T12:41:57.166Z,3.80
2018-04-30T12:44:31.091Z,1.63
2018-04-30T12:47:05.102Z,1.30
2018-04-30T12:49:39.854Z,1.90
2018-04-30T12:52:14.658Z,1.37
2018-04-30T12:54:50.016Z,0.93
2018-04-30T12:57:24.089Z,0.97
2018-04-30T12:59:58.240Z,1.10
2018-04-30T13:02:31.894Z,1.00
2018-04-30T13:05:06.002Z,1.03
2018-04-30T13:07:40.006Z,1.57
2018-04-30T13:10:14.119Z,1.00
2018-04-30T13:12:48.772Z,2.70
2018-04-30T13:15:22.690Z,1.40
2018-04-30T13:17:56.754Z,2.97
2018-04-30T13:20:31.643Z,1.20
2018-04-30T13:23:06.703Z,5.13
2018-04-30T13:25:41.784Z,0.93
2018-04-30T13:28:16.018Z,0.97
2018-04-30T13:30:51.720Z,1.83
2018-04-30T13:33:26.785Z,2.90
2018-04-30T13:36:01.402Z,1.07
2018-04-30T13:38:35.099Z,0.80
2018-04-30T13:41:09.707Z,1.17
2018-04-30T13:43:43.371Z,0.90
2018-04-30T13:46:18.749Z,1.10
2018-04-30T13:48:53.385Z,0.97
2018-04-30T13:51:27.035Z,2.60
2018-04-30T13:54:01.729Z,4.53
2018-04-30T13:56:36.410Z,1.47
2018-04-30T13:59:11.739Z,2.20
2018-04-30T14:01:45.490Z,1.07
2018-04-30T14:04:19.208Z,0.90
2018-04-30T14:06:52.701Z,2.37
2018-04-30T14:09:26.325Z,1.37
2018-04-30T14:12:00.145Z,3.73
2018-04-30T14:14:34.542Z,1.03
2018-04-30T14:17:09.446Z,1.60
2018-04-30T14:19:43.120Z,1.03
2018-04-30T14:22:16.630Z,1.57
2018-04-30T14:24:50.228Z,0.90
2018-04-30T14:27:24.014Z,1.00
2018-04-30T14:29:57.559Z,0.90
2018-04-30T14:32:31.394Z,0.90
2018-04-30T14:35:04.963Z,1.37
2018-04-30T14:37:39.445Z,0.97
2018-04-30T14:40:13.083Z,0.90
2018-04-30T14:42:47.006Z,0.90
2018-04-30T14:45:20.722Z,1.00
2018-04-30T14:47:54.398Z,1.00
2018-04-30T14:50:29.020Z,1.00
2018-04-30T14:53:02.736Z,1.00
2018-04-30T14:55:36.487Z,0.90
2018-04-30T14:58:10.163Z,1.00
2018-04-30T15:00:44.035Z,1.00
2018-04-30T15:03:17.751Z,0.93
2018-04-30T15:05:51.411Z,1.13
2018-04-30T15:08:25.017Z,0.80
2018-04-30T15:10:58.534Z,0.90
2018-04-30T15:13:32.136Z,1.70
2018-04-30T15:16:05.706Z,0.80
2018-04-30T15:18:39.350Z,2.30
2018-04-30T15:21:13.740Z,1.23
2018-04-30T15:23:47.677Z,1.73
2018-04-30T15:26:21.175Z,2.50
2018-04-30T15:28:55.561Z,0.90
2018-04-30T15:31:29.894Z,1.47
2018-04-30T15:34:04.948Z,1.00
2018-04-30T15:36:38.590Z,3.30
2018-04-30T15:39:13.163Z,1.33
2018-04-30T15:41:47.550Z,1.20
2018-04-30T15:44:22.294Z,1.10
2018-04-30T15:46:56.718Z,2.17
2018-04-30T15:49:30.511Z,1.13
2018-04-30T15:52:04.903Z,1.53
2018-04-30T15:54:39.591Z,0.90
2018-04-30T15:57:14.494Z,1.33
2018-04-30T15:59:48.718Z,1.10
2018-04-30T16:02:23.405Z,1.67
2018-04-30T16:04:58.042Z,1.10
2018-04-30T16:07:32.832Z,0.90
2018-04-30T16:10:06.679Z,2.93
2018-04-30T16:12:41.092Z,1.43
2018-04-30T16:15:15.488Z,1.30
2018-04-30T16:17:49.489Z,1.10
2018-04-30T16:20:23.290Z,1.10
2018-04-30T16:22:57.370Z,2.10
2018-04-30T16:25:32.148Z,1.83
2018-04-30T16:28:06.265Z,3.50
2018-04-30T16:30:39.954Z,1.87
2018-04-30T16:33:14.509Z,1.00
2018-04-30T16:35:48.600Z,2.10
2018-04-30T16:38:22.419Z,1.10
2018-04-30T16:40:56.299Z,4.17
2018-04-30T16:43:30.939Z,1.30
2018-04-30T16:46:05.567Z,3.47
2018-04-30T16:48:40.392Z,1.10
2018-04-30T16:51:14.098Z,1.97
2018-04-30T16:53:48.514Z,1.80
2018-04-30T16:56:23.645Z,1.37
2018-04-30T16:58:57.537Z,1.73
2018-04-30T17:01:32.363Z,2.00
2018-04-30T17:04:06.883Z,4.87
2018-04-30T17:06:42.031Z,5.13
2018-04-30T17:09:15.664Z,2.00
2018-04-30T17:11:49.378Z,1.67
2018-04-30T17:14:23.051Z,2.87
2018-04-30T17:16:57.959Z,2.43
2018-04-30T17:19:31.434Z,7.43
2018-04-30T17:22:05.047Z,3.57
2018-04-30T17:24:39.720Z,1.80
2018-04-30T17:27:14.298Z,1.27
2018-04-30T17:29:48.618Z,1.57
2018-04-30T17:32:23.198Z,1.93
2018-04-30T17:34:57.953Z,2.07
2018-04-30T17:37:32.487Z,1.43
2018-04-30T17:40:06.913Z,1.23
2018-04-30T17:42:41.451Z,1.13
2018-04-30T17:45:16.741Z,1.30
2018-04-30T17:47:50.633Z,1.40
2018-04-30T17:50:24.575Z,1.80
2018-04-30T17:52:58.853Z,1.47
2018-04-30T17:55:33.520Z,1.33
2018-04-30T17:58:07.616Z,1.10
2018-04-30T18:00:42.172Z,3.03
2018-04-30T18:03:16.082Z,1.60
2018-04-30T18:05:49.784Z,1.40
2018-04-30T18:08:23.555Z,1.27
2018-04-30T18:10:57.900Z,1.10
2018-04-30T18:13:33.569Z,1.73
2018-04-30T18:16:07.084Z,2.07
2018-04-30T18:18:41.458Z,2.27
2018-04-30T18:21:16.716Z,1.40
2018-04-30T18:23:50.390Z,1.50
2018-04-30T18:26:24.125Z,1.40
2018-04-30T18:28:58.217Z,1.30
2018-04-30T18:31:32.819Z,1.30
2018-04-30T18:34:07.378Z,1.37
2018-04-30T18:36:41.731Z,1.60
2018-04-30T18:39:16.412Z,1.60
2018-04-30T18:41:50.843Z,3.37
2018-04-30T18:44:26.137Z,2.30
2018-04-30T18:47:00.641Z,2.57
2018-04-30T18:49:34.420Z,1.40
2018-04-30T18:52:08.926Z,2.77
2018-04-30T18:54:43.563Z,1.57
2018-04-30T18:57:17.451Z,1.60
2018-04-30T18:59:51.146Z,1.57
2018-04-30T19:02:25.973Z,1.40
2018-04-30T19:04:59.968Z,1.63
2018-04-30T19:07:33.875Z,1.13
2018-04-30T19:10:07.663Z,1.10
2018-04-30T19:12:42.433Z,1.43
2018-04-30T19:15:17.039Z,2.17
2018-04-30T19:17:51.051Z,2.47
2018-04-30T19:20:25.587Z,1.53
2018-04-30T19:23:01.163Z,1.70
2018-04-30T19:25:36.655Z,1.30
2018-04-30T19:28:11.595Z,1.17
2018-04-30T19:30:46.358Z,1.07
2018-04-30T19:33:20.221Z,1.33
2018-04-30T19:35:54.964Z,1.33
2018-04-30T19:38:29.526Z,1.40
2018-04-30T19:41:03.712Z,1.53
2018-04-30T19:43:38.159Z,1.13
2018-04-30T19:46:11.864Z,1.30
2018-04-30T19:48:46.290Z,1.40
2018-04-30T19:51:21.873Z,1.77
2018-04-30T19:53:55.581Z,1.70
2018-04-30T19:56:29.182Z,1.97
2018-04-30T19:59:03.602Z,2.13
2018-04-30T20:01:37.366Z,1.30
2018-04-30T20:04:11.504Z,2.00
2018-04-30T20:06:45.382Z,1.27
2018-04-30T20:09:18.931Z,1.60
2018-04-30T20:11:53.664Z,1.20
2018-04-30T20:14:27.529Z,2.50
2018-04-30T20:17:01.867Z,1.27
2018-04-30T20:19:35.599Z,2.07
2018-04-30T20:22:10.553Z,1.67
2018-04-30T20:24:44.144Z,1.80
2018-04-30T20:27:18.998Z,1.53
2018-04-30T20:29:52.992Z,1.50
2018-04-30T20:32:27.719Z,1.73
2018-04-30T20:35:03.210Z,2.40
2018-04-30T20:37:37.863Z,1.20
2018-04-30T20:40:12.363Z,1.47
2018-04-30T20:42:46.623Z,1.30
2018-04-30T20:45:28.388Z,1.20
2018-04-30T20:48:03.045Z,1.20
2018-04-30T20:50:37.141Z,1.20
2018-04-30T20:53:10.996Z,1.20
2018-04-30T20:55:46.531Z,1.20
2018-04-30T20:58:21.598Z,1.20
2018-04-30T21:00:55.295Z,1.40
2018-04-30T21:03:31.731Z,2.10
2018-04-30T21:06:05.676Z,1.27
2018-04-30T21:11:45.915Z,5.20
2018-04-30T21:14:20.309Z,1.13
2018-04-30T21:16:54.706Z,1.37
2018-04-30T21:19:28.218Z,1.37
2018-04-30T21:22:03.408Z,1.43
2018-04-30T21:24:37.162Z,1.50
2018-04-30T21:27:11.620Z,1.63
2018-04-30T21:29:46.036Z,1.87
2018-04-30T21:32:19.706Z,3.50
2018-04-30T21:34:53.402Z,1.50
2018-04-30T21:37:27.063Z,3.30
2018-04-30T21:40:01.608Z,1.50
2018-04-30T21:42:35.299Z,1.40
2018-04-30T21:45:09.864Z,1.33
2018-04-30T21:47:44.480Z,1.27
2018-04-30T21:50:18.920Z,1.77
2018-04-30T21:52:53.771Z,2.80
2018-04-30T21:55:28.274Z,1.47
2018-04-30T21:58:02.287Z,2.00
2018-04-30T22:00:36.845Z,1.30
2018-04-30T22:03:11.264Z,1.40
2018-04-30T22:05:45.048Z,1.70
2018-04-30T22:08:19.471Z,7.30
2018-04-30T22:10:54.695Z,3.13
2018-04-30T22:13:28.387Z,1.70
2018-04-30T22:16:01.971Z,1.10
2018-04-30T22:18:36.410Z,1.30
2018-04-30T22:21:10.182Z,2.37
2018-04-30T22:23:44.713Z,1.20
2018-04-30T22:26:19.134Z,1.20
2018-04-30T22:28:53.691Z,1.30
2018-04-30T22:31:28.624Z,1.50
2018-04-30T22:34:02.647Z,1.67
2018-04-30T22:36:36.240Z,2.93
2018-04-30T22:39:10.630Z,1.13
2018-04-30T22:41:44.354Z,1.50
2018-04-30T22:44:19.780Z,1.20
2018-04-30T22:46:55.054Z,1.33
2018-04-30T22:49:29.571Z,2.37
2018-04-30T22:52:03.886Z,1.30
2018-04-30T22:54:37.459Z,1.20
2018-04-30T22:57:12.033Z,2.10
2018-04-30T22:59:45.880Z,1.20
2018-04-30T23:02:19.635Z,1.20
2018-04-30T23:04:53.391Z,2.80
2018-04-30T23:07:27.661Z,1.30
2018-04-30T23:10:01.606Z,1.13
2018-04-30T23:12:36.041Z,1.10
2018-04-30T23:15:10.087Z,1.10
2018-04-30T23:17:43.780Z,2.73
2018-04-30T23:20:17.479Z,2.37
2018-04-30T23:22:52.236Z,1.70
2018-04-30T23:25:26.150Z,1.30
2018-04-30T23:27:59.968Z,1.20
2018-04-30T23:30:34.518Z,1.37
2018-04-30T23:33:08.989Z,1.53
2018-04-30T23:35:42.611Z,1.00
2018-04-30T23:38:17.178Z,1.10
2018-04-30T23:40:51.368Z,2.10
2018-04-30T23:43:24.938Z,1.73
2018-04-30T23:45:58.851Z,2.00
2018-04-30T23:48:33.298Z,1.00
2018-04-30T23:51:06.958Z,1.00
2018-04-30T23:53:40.767Z,0.90
2018-04-30T23:56:15.238Z,1.00
2018-04-30T23:58:48.934Z,1.50
